sensor_id;sensor_type;location;lat;lon;timestamp;temperature;humidity
36212;DHT22;22247;48.586;13.492;2022-07-29T00:44:50;18.40;99.90
36212;DHT22;22247;48.586;13.492;2022-07-29T00:52:09;18.40;99.90
36212;DHT22;22247;48.586;13.492;2022-07-29T00:57:06;18.50;99.90
36212;DHT22;22247;48.586;13.492;2022-07-29T01:11:46;18.40;99.90
36212;DHT22;22247;48.586;13.492;2022-07-29T01:16:49;18.50;99.90
36212;DHT22;22247;48.586;13.492;2022-07-29T01:19:57;18.30;99.90
36212;DHT22;22247;48.586;13.492;2022-07-29T01:28:49;18.20;99.90
36212;DHT22;22247;48.586;13.492;2022-07-29T01:31:22;18.20;99.90
36212;DHT22;22247;48.586;13.492;2022-07-29T01:33:55;18.30;99.90
36212;DHT22;22247;48.586;13.492;2022-07-29T01:36:36;18.20;99.90
36212;DHT22;22247;48.586;13.492;2022-07-29T01:39:10;18.10;99.90
36212;DHT22;22247;48.586;13.492;2022-07-29T01:42:08;18.20;99.90
36212;DHT22;22247;48.586;13.492;2022-07-29T01:45:02;16.00;99.90
36212;DHT22;22247;48.586;13.492;2022-07-29T01:48:02;18.10;99.90
36212;DHT22;22247;48.586;13.492;2022-07-29T01:50:37;18.30;99.90
36212;DHT22;22247;48.586;13.492;2022-07-29T01:53:08;18.00;99.90
36212;DHT22;22247;48.586;13.492;2022-07-29T01:55:44;18.20;99.90
36212;DHT22;22247;48.586;13.492;2022-07-29T01:58:14;18.00;99.90
36212;DHT22;22247;48.586;13.492;2022-07-29T02:03:25;17.80;99.90
36212;DHT22;22247;48.586;13.492;2022-07-29T02:08:20;17.70;99.90
36212;DHT22;22247;48.586;13.492;2022-07-29T02:10:49;17.30;99.90
36212;DHT22;22247;48.586;13.492;2022-07-29T02:13:16;17.80;99.90
36212;DHT22;22247;48.586;13.492;2022-07-29T02:15:44;17.60;99.90
36212;DHT22;22247;48.586;13.492;2022-07-29T02:18:15;17.60;99.90
36212;DHT22;22247;48.586;13.492;2022-07-29T02:20:48;17.20;99.90
36212;DHT22;22247;48.586;13.492;2022-07-29T02:23:19;17.50;99.90
36212;DHT22;22247;48.586;13.492;2022-07-29T02:25:49;17.50;99.90
36212;DHT22;22247;48.586;13.492;2022-07-29T02:28:16;17.50;99.90
36212;DHT22;22247;48.586;13.492;2022-07-29T02:30:43;17.50;99.90
36212;DHT22;22247;48.586;13.492;2022-07-29T02:33:12;17.50;99.90
36212;DHT22;22247;48.586;13.492;2022-07-29T02:35:40;17.40;99.90
36212;DHT22;22247;48.586;13.492;2022-07-29T02:38:09;17.60;99.90
36212;DHT22;22247;48.586;13.492;2022-07-29T02:40:56;17.30;99.90
36212;DHT22;22247;48.586;13.492;2022-07-29T02:43:26;17.30;99.90
36212;DHT22;22247;48.586;13.492;2022-07-29T02:45:54;17.40;99.90
36212;DHT22;22247;48.586;13.492;2022-07-29T02:48:32;17.40;99.90
36212;DHT22;22247;48.586;13.492;2022-07-29T02:51:06;17.40;99.90
36212;DHT22;22247;48.586;13.492;2022-07-29T02:53:41;17.30;99.90
36212;DHT22;22247;48.586;13.492;2022-07-29T02:56:14;17.30;99.90
36212;DHT22;22247;48.586;13.492;2022-07-29T02:58:47;17.30;99.90
36212;DHT22;22247;48.586;13.492;2022-07-29T03:01:22;17.40;99.90
36212;DHT22;22247;48.586;13.492;2022-07-29T03:03:51;17.30;99.90
36212;DHT22;22247;48.586;13.492;2022-07-29T03:06:20;17.20;99.90
36212;DHT22;22247;48.586;13.492;2022-07-29T03:16:06;16.70;99.90
36212;DHT22;22247;48.586;13.492;2022-07-29T03:18:36;17.30;99.90
36212;DHT22;22247;48.586;13.492;2022-07-29T03:21:03;17.40;99.90
36212;DHT22;22247;48.586;13.492;2022-07-29T03:23:31;17.40;99.90
36212;DHT22;22247;48.586;13.492;2022-07-29T03:25:57;17.40;99.90
36212;DHT22;22247;48.586;13.492;2022-07-29T03:28:25;17.40;99.90
36212;DHT22;22247;48.586;13.492;2022-07-29T03:30:57;17.40;99.90
36212;DHT22;22247;48.586;13.492;2022-07-29T03:38:17;17.40;99.90
36212;DHT22;22247;48.586;13.492;2022-07-29T03:41:05;17.40;99.90
36212;DHT22;22247;48.586;13.492;2022-07-29T03:43:36;17.40;99.90
36212;DHT22;22247;48.586;13.492;2022-07-29T03:46:04;17.40;99.90
36212;DHT22;22247;48.586;13.492;2022-07-29T03:48:35;17.40;99.90
36212;DHT22;22247;48.586;13.492;2022-07-29T03:51:05;17.30;99.90
36212;DHT22;22247;48.586;13.492;2022-07-29T03:53:31;17.40;99.90
36212;DHT22;22247;48.586;13.492;2022-07-29T03:56:00;17.40;99.90
36212;DHT22;22247;48.586;13.492;2022-07-29T03:58:30;17.60;99.90
36212;DHT22;22247;48.586;13.492;2022-07-29T04:00:57;17.50;99.90
36212;DHT22;22247;48.586;13.492;2022-07-29T04:06:06;17.50;99.90
36212;DHT22;22247;48.586;13.492;2022-07-29T04:08:35;17.50;99.90
36212;DHT22;22247;48.586;13.492;2022-07-29T04:11:04;17.50;99.90
36212;DHT22;22247;48.586;13.492;2022-07-29T04:13:32;17.50;99.90
36212;DHT22;22247;48.586;13.492;2022-07-29T04:16:01;17.60;99.90
36212;DHT22;22247;48.586;13.492;2022-07-29T04:18:29;17.60;99.90
36212;DHT22;22247;48.586;13.492;2022-07-29T04:20:54;17.60;99.90
36212;DHT22;22247;48.586;13.492;2022-07-29T04:23:26;17.60;99.90
36212;DHT22;22247;48.586;13.492;2022-07-29T05:40:06;18.10;99.90
36212;DHT22;22247;48.586;13.492;2022-07-29T06:02:20;18.00;99.90
36212;DHT22;22247;48.586;13.492;2022-07-29T06:07:29;18.10;99.90
36212;DHT22;22247;48.586;13.492;2022-07-29T06:09:58;18.10;99.90
36212;DHT22;22247;48.586;13.492;2022-07-29T06:19:46;18.10;99.90
36212;DHT22;22247;48.586;13.492;2022-07-29T06:22:12;18.10;99.90
36212;DHT22;22247;48.586;13.492;2022-07-29T06:27:10;18.10;99.90
36212;DHT22;22247;48.586;13.492;2022-07-29T06:29:36;18.00;99.90
36212;DHT22;22247;48.586;13.492;2022-07-29T06:32:02;18.10;99.90
36212;DHT22;22247;48.586;13.492;2022-07-29T06:34:33;18.20;99.90
36212;DHT22;22247;48.586;13.492;2022-07-29T06:36:58;18.30;99.90
36212;DHT22;22247;48.586;13.492;2022-07-29T06:39:28;18.40;99.90
36212;DHT22;22247;48.586;13.492;2022-07-29T06:46:49;18.60;99.90
36212;DHT22;22247;48.586;13.492;2022-07-29T06:56:37;19.30;99.90
36212;DHT22;22247;48.586;13.492;2022-07-29T07:08:52;19.90;99.90
36212;DHT22;22247;48.586;13.492;2022-07-29T07:11:18;19.90;99.90
36212;DHT22;22247;48.586;13.492;2022-07-29T07:18:35;20.50;99.90
36212;DHT22;22247;48.586;13.492;2022-07-29T07:23:33;21.30;99.90
36212;DHT22;22247;48.586;13.492;2022-07-29T07:30:53;21.60;99.90
36212;DHT22;22247;48.586;13.492;2022-07-29T07:33:21;21.70;99.90
36212;DHT22;22247;48.586;13.492;2022-07-29T07:40:45;22.20;99.90
36212;DHT22;22247;48.586;13.492;2022-07-29T07:45:40;22.20;99.90
36212;DHT22;22247;48.586;13.492;2022-07-29T07:50:37;22.20;99.90
36212;DHT22;22247;48.586;13.492;2022-07-29T07:57:58;22.10;99.90
36212;DHT22;22247;48.586;13.492;2022-07-29T08:02:50;22.10;99.90
36212;DHT22;22247;48.586;13.492;2022-07-29T08:05:16;22.10;99.90
36212;DHT22;22247;48.586;13.492;2022-07-29T08:07:48;22.10;99.90
36212;DHT22;22247;48.586;13.492;2022-07-29T08:10:15;22.00;99.90
36212;DHT22;22247;48.586;13.492;2022-07-29T08:13:11;21.90;99.90
36212;DHT22;22247;48.586;13.492;2022-07-29T08:15:39;21.70;99.90
36212;DHT22;22247;48.586;13.492;2022-07-29T08:18:08;21.60;99.90
36212;DHT22;22247;48.586;13.492;2022-07-29T08:20:35;21.50;99.90
36212;DHT22;22247;48.586;13.492;2022-07-29T08:23:02;21.50;99.90
36212;DHT22;22247;48.586;13.492;2022-07-29T08:25:31;21.40;99.90
36212;DHT22;22247;48.586;13.492;2022-07-29T08:27:57;21.50;99.90
36212;DHT22;22247;48.586;13.492;2022-07-29T08:30:25;21.60;99.90
36212;DHT22;22247;48.586;13.492;2022-07-29T08:32:51;21.70;99.90
36212;DHT22;22247;48.586;13.492;2022-07-29T08:35:19;21.60;99.90
36212;DHT22;22247;48.586;13.492;2022-07-29T08:37:45;21.60;99.90
36212;DHT22;22247;48.586;13.492;2022-07-29T08:40:11;21.60;99.90
36212;DHT22;22247;48.586;13.492;2022-07-29T08:42:40;21.80;99.90
36212;DHT22;22247;48.586;13.492;2022-07-29T08:45:06;22.00;99.90
36212;DHT22;22247;48.586;13.492;2022-07-29T08:47:38;22.50;99.90
36212;DHT22;22247;48.586;13.492;2022-07-29T08:50:10;23.00;99.90
36212;DHT22;22247;48.586;13.492;2022-07-29T08:52:38;23.40;99.90
36212;DHT22;22247;48.586;13.492;2022-07-29T08:55:09;24.00;99.90
36212;DHT22;22247;48.586;13.492;2022-07-29T08:57:38;24.00;99.90
36212;DHT22;22247;48.586;13.492;2022-07-29T09:00:07;24.00;99.90
36212;DHT22;22247;48.586;13.492;2022-07-29T09:02:39;24.00;99.90
36212;DHT22;22247;48.586;13.492;2022-07-29T09:05:08;24.00;99.90
36212;DHT22;22247;48.586;13.492;2022-07-29T09:10:04;24.10;99.90
36212;DHT22;22247;48.586;13.492;2022-07-29T09:17:47;24.70;99.90
36212;DHT22;22247;48.586;13.492;2022-07-29T09:25:12;24.70;99.90
36212;DHT22;22247;48.586;13.492;2022-07-29T09:27:50;24.60;99.90
36212;DHT22;22247;48.586;13.492;2022-07-29T09:32:58;25.30;99.90
36212;DHT22;22247;48.586;13.492;2022-07-29T09:35:28;25.40;99.90
36212;DHT22;22247;48.586;13.492;2022-07-29T09:37:54;25.40;99.90
36212;DHT22;22247;48.586;13.492;2022-07-29T09:40:25;25.30;99.90
36212;DHT22;22247;48.586;13.492;2022-07-29T09:43:13;25.30;99.90
36212;DHT22;22247;48.586;13.492;2022-07-29T09:48:23;25.40;99.90
36212;DHT22;22247;48.586;13.492;2022-07-29T09:50:53;25.60;99.90
36212;DHT22;22247;48.586;13.492;2022-07-29T09:53:35;25.70;99.90
36212;DHT22;22247;48.586;13.492;2022-07-29T09:56:04;25.80;99.90
36212;DHT22;22247;48.586;13.492;2022-07-29T10:00:59;26.20;99.90
36212;DHT22;22247;48.586;13.492;2022-07-29T10:06:08;26.30;99.90
36212;DHT22;22247;48.586;13.492;2022-07-29T10:08:34;26.30;99.90
36212;DHT22;22247;48.586;13.492;2022-07-29T10:13:38;26.80;99.90
36212;DHT22;22247;48.586;13.492;2022-07-29T10:16:09;26.50;99.90
36212;DHT22;22247;48.586;13.492;2022-07-29T10:18:38;26.40;99.90
36212;DHT22;22247;48.586;13.492;2022-07-29T10:21:08;26.50;99.90
36212;DHT22;22247;48.586;13.492;2022-07-29T10:23:36;26.70;99.90
36212;DHT22;22247;48.586;13.492;2022-07-29T10:26:03;26.70;99.90
36212;DHT22;22247;48.586;13.492;2022-07-29T10:28:34;26.60;99.40
36212;DHT22;22247;48.586;13.492;2022-07-29T10:31:04;26.70;99.20
36212;DHT22;22247;48.586;13.492;2022-07-29T10:42:09;26.60;99.10
36212;DHT22;22247;48.586;13.492;2022-07-29T10:44:42;27.00;99.60
36212;DHT22;22247;48.586;13.492;2022-07-29T10:47:24;27.20;98.10
36212;DHT22;22247;48.586;13.492;2022-07-29T10:50:05;27.10;99.10
36212;DHT22;22247;48.586;13.492;2022-07-29T10:55:38;27.70;96.80
36212;DHT22;22247;48.586;13.492;2022-07-29T11:03:09;28.00;96.40
36212;DHT22;22247;48.586;13.492;2022-07-29T11:05:55;28.40;98.20
36212;DHT22;22247;48.586;13.492;2022-07-29T11:08:22;28.40;98.80
36212;DHT22;22247;48.586;13.492;2022-07-29T11:10:50;28.60;99.30
36212;DHT22;22247;48.586;13.492;2022-07-29T11:16:14;28.60;91.70
36212;DHT22;22247;48.586;13.492;2022-07-29T11:21:40;28.50;92.10
36212;DHT22;22247;48.586;13.492;2022-07-29T11:27:12;28.40;93.20
36212;DHT22;22247;48.586;13.492;2022-07-29T11:29:57;28.00;91.60
36212;DHT22;22247;48.586;13.492;2022-07-29T11:32:36;27.90;91.40
36212;DHT22;22247;48.586;13.492;2022-07-29T11:35:18;27.60;91.70
36212;DHT22;22247;48.586;13.492;2022-07-29T11:37:47;27.80;92.00
36212;DHT22;22247;48.586;13.492;2022-07-29T11:40:40;27.80;92.10
36212;DHT22;22247;48.586;13.492;2022-07-29T11:43:05;27.90;92.20
36212;DHT22;22247;48.586;13.492;2022-07-29T11:45:45;28.20;93.50
36212;DHT22;22247;48.586;13.492;2022-07-29T11:48:18;28.60;92.10
36212;DHT22;22247;48.586;13.492;2022-07-29T11:50:44;28.40;99.90
36212;DHT22;22247;48.586;13.492;2022-07-29T11:53:12;28.80;93.80
36212;DHT22;22247;48.586;13.492;2022-07-29T11:55:39;28.90;92.60
36212;DHT22;22247;48.586;13.492;2022-07-29T11:58:07;28.40;91.80
36212;DHT22;22247;48.586;13.492;2022-07-29T12:00:39;28.40;91.10
36212;DHT22;22247;48.586;13.492;2022-07-29T12:03:09;28.40;93.40
36212;DHT22;22247;48.586;13.492;2022-07-29T12:05:42;28.50;92.20
36212;DHT22;22247;48.586;13.492;2022-07-29T12:10:38;28.90;92.10
36212;DHT22;22247;48.586;13.492;2022-07-29T12:13:06;28.90;90.40
36212;DHT22;22247;48.586;13.492;2022-07-29T12:15:32;28.50;90.90
36212;DHT22;22247;48.586;13.492;2022-07-29T12:17:58;28.70;90.80
36212;DHT22;22247;48.586;13.492;2022-07-29T12:20:26;28.90;91.90
36212;DHT22;22247;48.586;13.492;2022-07-29T12:22:52;28.80;91.30
36212;DHT22;22247;48.586;13.492;2022-07-29T12:25:22;28.70;90.50
36212;DHT22;22247;48.586;13.492;2022-07-29T12:27:58;28.60;90.80
36212;DHT22;22247;48.586;13.492;2022-07-29T12:30:38;29.10;89.70
36212;DHT22;22247;48.586;13.492;2022-07-29T12:35:48;29.40;90.20
36212;DHT22;22247;48.586;13.492;2022-07-29T12:38:17;29.50;90.80
36212;DHT22;22247;48.586;13.492;2022-07-29T12:40:43;29.80;87.30
36212;DHT22;22247;48.586;13.492;2022-07-29T12:45:42;30.30;85.90
36212;DHT22;22247;48.586;13.492;2022-07-29T12:48:09;29.50;86.80
36212;DHT22;22247;48.586;13.492;2022-07-29T12:50:36;28.80;87.40
36212;DHT22;22247;48.586;13.492;2022-07-29T12:53:09;28.30;88.40
36212;DHT22;22247;48.586;13.492;2022-07-29T12:55:40;27.70;88.10
36212;DHT22;22247;48.586;13.492;2022-07-29T12:58:06;27.80;89.50
36212;DHT22;22247;48.586;13.492;2022-07-29T13:02:59;27.60;89.70
36212;DHT22;22247;48.586;13.492;2022-07-29T13:05:44;27.70;90.10
36212;DHT22;22247;48.586;13.492;2022-07-29T13:08:17;28.10;88.30
36212;DHT22;22247;48.586;13.492;2022-07-29T13:13:15;28.70;86.20
36212;DHT22;22247;48.586;13.492;2022-07-29T13:15:44;29.30;86.80
36212;DHT22;22247;48.586;13.492;2022-07-29T13:18:34;29.90;86.00
36212;DHT22;22247;48.586;13.492;2022-07-29T13:21:12;29.60;87.10
36212;DHT22;22247;48.586;13.492;2022-07-29T13:23:37;30.00;86.10
36212;DHT22;22247;48.586;13.492;2022-07-29T13:26:09;29.50;99.90
36212;DHT22;22247;48.586;13.492;2022-07-29T13:28:37;29.70;86.30
36212;DHT22;22247;48.586;13.492;2022-07-29T13:31:04;29.10;87.20
36212;DHT22;22247;48.586;13.492;2022-07-29T13:33:30;29.60;99.90
36212;DHT22;22247;48.586;13.492;2022-07-29T13:36:01;29.40;83.80
36212;DHT22;22247;48.586;13.492;2022-07-29T13:38:31;30.00;82.70
36212;DHT22;22247;48.586;13.492;2022-07-29T13:40:58;30.50;89.10
36212;DHT22;22247;48.586;13.492;2022-07-29T13:43:23;30.20;88.10
36212;DHT22;22247;48.586;13.492;2022-07-29T13:45:52;29.70;85.80
36212;DHT22;22247;48.586;13.492;2022-07-29T13:50:46;29.90;85.60
36212;DHT22;22247;48.586;13.492;2022-07-29T13:55:39;30.60;87.40
36212;DHT22;22247;48.586;13.492;2022-07-29T13:58:04;30.70;84.60
36212;DHT22;22247;48.586;13.492;2022-07-29T14:00:33;30.00;83.40
36212;DHT22;22247;48.586;13.492;2022-07-29T14:03:03;29.30;83.80
36212;DHT22;22247;48.586;13.492;2022-07-29T14:05:31;28.80;83.10
36212;DHT22;22247;48.586;13.492;2022-07-29T14:07:59;28.50;90.10
36212;DHT22;22247;48.586;13.492;2022-07-29T14:12:52;28.10;86.30
36212;DHT22;22247;48.586;13.492;2022-07-29T14:15:20;28.10;90.00
36212;DHT22;22247;48.586;13.492;2022-07-29T14:17:49;28.20;90.30
36212;DHT22;22247;48.586;13.492;2022-07-29T14:20:14;28.20;90.10
36212;DHT22;22247;48.586;13.492;2022-07-29T14:25:10;28.50;86.70
36212;DHT22;22247;48.586;13.492;2022-07-29T14:27:36;28.70;87.40
36212;DHT22;22247;48.586;13.492;2022-07-29T14:39:50;29.00;89.30
36212;DHT22;22247;48.586;13.492;2022-07-29T14:42:21;28.60;90.40
36212;DHT22;22247;48.586;13.492;2022-07-29T14:44:49;28.40;90.60
36212;DHT22;22247;48.586;13.492;2022-07-29T14:47:17;28.20;88.30
36212;DHT22;22247;48.586;13.492;2022-07-29T14:49:47;28.10;89.80
36212;DHT22;22247;48.586;13.492;2022-07-29T14:52:14;28.20;87.10
36212;DHT22;22247;48.586;13.492;2022-07-29T14:54:40;28.20;90.70
36212;DHT22;22247;48.586;13.492;2022-07-29T14:57:08;28.00;90.00
36212;DHT22;22247;48.586;13.492;2022-07-29T14:59:36;27.90;90.80
36212;DHT22;22247;48.586;13.492;2022-07-29T15:02:06;27.80;90.50
36212;DHT22;22247;48.586;13.492;2022-07-29T15:04:32;27.90;90.80
36212;DHT22;22247;48.586;13.492;2022-07-29T15:06:58;27.90;89.70
36212;DHT22;22247;48.586;13.492;2022-07-29T15:09:26;27.80;92.30
36212;DHT22;22247;48.586;13.492;2022-07-29T15:11:54;27.80;92.90
36212;DHT22;22247;48.586;13.492;2022-07-29T15:16:48;27.50;91.30
36212;DHT22;22247;48.586;13.492;2022-07-29T15:19:13;27.60;92.30
36212;DHT22;22247;48.586;13.492;2022-07-29T15:21:39;27.60;92.80
36212;DHT22;22247;48.586;13.492;2022-07-29T15:31:27;27.30;90.60
36212;DHT22;22247;48.586;13.492;2022-07-29T15:33:55;27.30;90.00
36212;DHT22;22247;48.586;13.492;2022-07-29T15:36:20;27.20;91.30
36212;DHT22;22247;48.586;13.492;2022-07-29T15:38:46;27.10;91.90
36212;DHT22;22247;48.586;13.492;2022-07-29T15:41:14;27.00;92.40
36212;DHT22;22247;48.586;13.492;2022-07-29T15:43:43;26.90;91.80
36212;DHT22;22247;48.586;13.492;2022-07-29T15:46:17;26.10;92.00
36212;DHT22;22247;48.586;13.492;2022-07-29T15:49:02;26.40;92.40
36212;DHT22;22247;48.586;13.492;2022-07-29T15:51:28;26.30;94.30
36212;DHT22;22247;48.586;13.492;2022-07-29T15:53:54;26.10;95.50
36212;DHT22;22247;48.586;13.492;2022-07-29T15:56:23;26.10;94.90
36212;DHT22;22247;48.586;13.492;2022-07-29T15:58:52;25.90;94.80
36212;DHT22;22247;48.586;13.492;2022-07-29T16:01:22;25.80;94.50
36212;DHT22;22247;48.586;13.492;2022-07-29T16:06:18;25.80;95.20
36212;DHT22;22247;48.586;13.492;2022-07-29T16:16:06;25.50;99.90
36212;DHT22;22247;48.586;13.492;2022-07-29T16:18:33;25.60;98.20
36212;DHT22;22247;48.586;13.492;2022-07-29T16:21:01;25.50;97.20
36212;DHT22;22247;48.586;13.492;2022-07-29T16:23:29;25.20;99.90
36212;DHT22;22247;48.586;13.492;2022-07-29T16:35:49;25.30;98.40
36212;DHT22;22247;48.586;13.492;2022-07-29T16:38:15;25.40;99.90
36212;DHT22;22247;48.586;13.492;2022-07-29T16:43:09;25.30;97.50
36212;DHT22;22247;48.586;13.492;2022-07-29T16:52:57;25.20;98.60
36212;DHT22;22247;48.586;13.492;2022-07-29T17:00:18;25.10;99.90
36212;DHT22;22247;48.586;13.492;2022-07-29T17:07:41;24.90;99.90
36212;DHT22;22247;48.586;13.492;2022-07-29T17:10:08;24.90;99.90
36212;DHT22;22247;48.586;13.492;2022-07-29T17:12:38;24.80;99.90
36212;DHT22;22247;48.586;13.492;2022-07-29T17:15:06;24.70;99.90
36212;DHT22;22247;48.586;13.492;2022-07-29T17:19:59;24.70;99.90
36212;DHT22;22247;48.586;13.492;2022-07-29T17:24:51;24.60;99.90
36212;DHT22;22247;48.586;13.492;2022-07-29T17:27:19;24.50;99.90
36212;DHT22;22247;48.586;13.492;2022-07-29T17:37:08;24.10;99.90
36212;DHT22;22247;48.586;13.492;2022-07-29T17:39:38;24.00;99.90
36212;DHT22;22247;48.586;13.492;2022-07-29T17:42:09;24.00;99.90
36212;DHT22;22247;48.586;13.492;2022-07-29T17:47:05;23.90;99.90
36212;DHT22;22247;48.586;13.492;2022-07-29T17:59:20;23.50;99.90
36212;DHT22;22247;48.586;13.492;2022-07-29T18:01:48;23.50;99.90
36212;DHT22;22247;48.586;13.492;2022-07-29T18:06:44;23.50;99.90
36212;DHT22;22247;48.586;13.492;2022-07-29T18:18:57;23.40;99.90
36212;DHT22;22247;48.586;13.492;2022-07-29T18:26:17;23.30;99.90
36212;DHT22;22247;48.586;13.492;2022-07-29T18:28:43;23.20;99.90
36212;DHT22;22247;48.586;13.492;2022-07-29T18:31:09;23.20;99.90
36212;DHT22;22247;48.586;13.492;2022-07-29T18:33:37;23.20;99.90
36212;DHT22;22247;48.586;13.492;2022-07-29T18:36:05;23.20;99.90
36212;DHT22;22247;48.586;13.492;2022-07-29T18:40:56;22.70;99.90
36212;DHT22;22247;48.586;13.492;2022-07-29T18:43:25;22.60;99.90
36212;DHT22;22247;48.586;13.492;2022-07-29T18:48:19;22.10;99.90
36212;DHT22;22247;48.586;13.492;2022-07-29T18:50:44;22.00;99.90
36212;DHT22;22247;48.586;13.492;2022-07-29T18:53:12;21.80;99.90
36212;DHT22;22247;48.586;13.492;2022-07-29T18:55:40;21.10;99.90
36212;DHT22;22247;48.586;13.492;2022-07-29T19:03:03;21.10;99.90
36212;DHT22;22247;48.586;13.492;2022-07-29T19:05:28;21.10;99.90
36212;DHT22;22247;48.586;13.492;2022-07-29T19:08:00;21.10;99.90
36212;DHT22;22247;48.586;13.492;2022-07-29T19:10:25;21.00;99.90
36212;DHT22;22247;48.586;13.492;2022-07-29T19:22:38;20.40;99.90
36212;DHT22;22247;48.586;13.492;2022-07-29T19:40:06;20.40;99.90
36212;DHT22;22247;48.586;13.492;2022-07-29T19:42:32;20.50;99.90
36212;DHT22;22247;48.586;13.492;2022-07-29T19:47:26;20.20;99.90
36212;DHT22;22247;48.586;13.492;2022-07-29T19:52:21;20.50;99.90
36212;DHT22;22247;48.586;13.492;2022-07-29T19:54:49;20.70;99.90
36212;DHT22;22247;48.586;13.492;2022-07-29T20:04:39;20.50;99.90
36212;DHT22;22247;48.586;13.492;2022-07-29T20:11:58;20.30;99.90
36212;DHT22;22247;48.586;13.492;2022-07-29T20:16:49;20.40;99.90
36212;DHT22;22247;48.586;13.492;2022-07-29T20:21:44;20.40;99.90
36212;DHT22;22247;48.586;13.492;2022-07-29T20:24:11;20.40;99.90
36212;DHT22;22247;48.586;13.492;2022-07-29T20:26:39;20.80;99.90
36212;DHT22;22247;48.586;13.492;2022-07-29T20:29:05;20.40;99.90
36212;DHT22;22247;48.586;13.492;2022-07-29T20:34:00;20.10;99.90
36212;DHT22;22247;48.586;13.492;2022-07-29T20:36:28;20.10;99.90
36212;DHT22;22247;48.586;13.492;2022-07-29T20:38:54;20.10;99.90
36212;DHT22;22247;48.586;13.492;2022-07-29T20:43:46;20.00;99.90
36212;DHT22;22247;48.586;13.492;2022-07-29T20:51:11;19.50;99.90
36212;DHT22;22247;48.586;13.492;2022-07-29T20:53:39;19.30;99.90
36212;DHT22;22247;48.586;13.492;2022-07-29T21:00:59;19.40;99.90
36212;DHT22;22247;48.586;13.492;2022-07-29T21:18:17;19.40;99.90
36212;DHT22;22247;48.586;13.492;2022-07-29T21:23:24;19.40;99.90
36212;DHT22;22247;48.586;13.492;2022-07-29T21:30:57;19.30;99.90
36212;DHT22;22247;48.586;13.492;2022-07-29T21:33:23;19.40;99.90
36212;DHT22;22247;48.586;13.492;2022-07-29T21:38:18;19.30;99.90
36212;DHT22;22247;48.586;13.492;2022-07-29T21:40:45;19.30;99.90
36212;DHT22;22247;48.586;13.492;2022-07-29T21:57:56;18.80;99.90
36212;DHT22;22247;48.586;13.492;2022-07-29T22:15:07;20.00;99.90
36212;DHT22;22247;48.586;13.492;2022-07-29T22:29:49;17.90;99.90
36212;DHT22;22247;48.586;13.492;2022-07-29T22:47:03;17.90;99.90
36212;DHT22;22247;48.586;13.492;2022-07-29T22:49:31;17.70;99.90
36212;DHT22;22247;48.586;13.492;2022-07-29T22:54:26;17.80;99.90
36212;DHT22;22247;48.586;13.492;2022-07-29T22:56:56;17.80;99.90
36212;DHT22;22247;48.586;13.492;2022-07-29T23:01:50;17.90;99.90
36212;DHT22;22247;48.586;13.492;2022-07-29T23:11:34;19.00;99.90
36212;DHT22;22247;48.586;13.492;2022-07-29T23:16:26;18.20;99.90
36212;DHT22;22247;48.586;13.492;2022-07-29T23:18:55;17.80;99.90
36212;DHT22;22247;48.586;13.492;2022-07-29T23:21:20;17.80;99.90
36212;DHT22;22247;48.586;13.492;2022-07-29T23:23:47;18.30;99.90
36212;DHT22;22247;48.586;13.492;2022-07-29T23:26:15;17.50;99.90
36212;DHT22;22247;48.586;13.492;2022-07-29T23:28:43;17.00;99.90
36212;DHT22;22247;48.586;13.492;2022-07-29T23:31:08;17.70;99.90
36212;DHT22;22247;48.586;13.492;2022-07-29T23:36:00;17.60;99.90
36212;DHT22;22247;48.586;13.492;2022-07-29T23:38:26;17.70;99.90
36212;DHT22;22247;48.586;13.492;2022-07-29T23:40:51;17.50;99.90
36212;DHT22;22247;48.586;13.492;2022-07-29T23:43:19;17.80;99.90
36212;DHT22;22247;48.586;13.492;2022-07-29T23:45:45;17.60;99.90
36212;DHT22;22247;48.586;13.492;2022-07-29T23:50:42;17.50;99.90
36212;DHT22;22247;48.586;13.492;2022-07-29T23:53:10;17.60;99.90
36212;DHT22;22247;48.586;13.492;2022-07-29T23:55:38;17.40;99.90
36212;DHT22;22247;48.586;13.492;2022-07-29T23:58:03;17.60;99.90
